createdAt,value
2022-08-24T00:00:38.382Z,69.20
2022-08-24T00:03:12.133Z,68.90
2022-08-24T00:05:40.050Z,69.10
2022-08-24T00:08:07.430Z,69.20
2022-08-24T00:10:34.869Z,69.30
2022-08-24T00:13:02.474Z,69.80
2022-08-24T00:15:29.902Z,70.30
2022-08-24T00:17:57.316Z,70.80
2022-08-24T00:20:24.941Z,71.10
2022-08-24T00:22:52.606Z,71.20
2022-08-24T00:25:20.722Z,71.40
2022-08-24T00:27:48.407Z,71.50
2022-08-24T00:30:19.544Z,71.50
2022-08-24T00:32:48.773Z,71.50
2022-08-24T00:35:20.828Z,71.30
2022-08-24T00:37:49.577Z,71.00
2022-08-24T00:40:30.135Z,70.70
2022-08-24T00:43:03.522Z,70.50
2022-08-24T00:45:34.570Z,70.40
2022-08-24T00:48:07.902Z,70.20
2022-08-24T00:50:45.723Z,69.60
2022-08-24T00:53:21.116Z,69.40
2022-08-24T00:55:59.383Z,69.20
2022-08-24T00:58:32.030Z,69.20
2022-08-24T01:01:03.263Z,68.90
2022-08-24T01:03:32.415Z,69.00
2022-08-24T01:06:00.294Z,69.70
2022-08-24T01:08:28.123Z,70.00
2022-08-24T01:11:12.702Z,70.90
2022-08-24T01:13:43.947Z,71.70
2022-08-24T01:16:13.538Z,72.40
2022-08-24T01:18:52.329Z,72.90
2022-08-24T01:21:20.878Z,73.30
2022-08-24T01:24:00.192Z,73.60
2022-08-24T01:26:40.235Z,73.80
2022-08-24T01:29:12.892Z,73.90
2022-08-24T01:31:40.496Z,73.50
2022-08-24T01:34:08.329Z,72.80
2022-08-24T01:36:41.398Z,72.80
2022-08-24T01:39:16.374Z,72.00
2022-08-24T01:41:44.175Z,71.70
2022-08-24T01:44:12.663Z,71.40
2022-08-24T01:46:45.142Z,71.10
2022-08-24T01:49:13.431Z,70.90
2022-08-24T01:51:41.370Z,70.70
2022-08-24T01:54:10.059Z,70.60
2022-08-24T01:56:37.950Z,70.40
2022-08-24T01:59:07.533Z,70.40
2022-08-24T02:01:44.767Z,70.10
2022-08-24T02:04:12.869Z,69.70
2022-08-24T02:06:47.637Z,69.40
2022-08-24T02:09:16.995Z,68.90
2022-08-24T02:11:44.499Z,68.50
2022-08-24T02:14:14.659Z,68.40
2022-08-24T02:16:42.862Z,68.30
2022-08-24T02:19:10.473Z,68.10
2022-08-24T02:21:38.539Z,67.80
2022-08-24T02:24:07.965Z,67.40
2022-08-24T02:26:35.478Z,67.00
2022-08-24T02:29:03.761Z,67.00
2022-08-24T02:31:32.576Z,67.00
2022-08-24T02:34:00.277Z,66.70
2022-08-24T02:36:27.746Z,66.00
2022-08-24T02:38:58.996Z,65.60
2022-08-24T02:41:26.961Z,65.50
2022-08-24T02:43:55.869Z,65.20
2022-08-24T02:46:28.703Z,65.20
2022-08-24T02:49:11.121Z,64.90
2022-08-24T02:51:45.574Z,64.60
2022-08-24T02:54:19.696Z,65.60
2022-08-24T02:56:50.050Z,66.20
2022-08-24T02:59:18.358Z,66.30
2022-08-24T03:01:47.155Z,66.30
2022-08-24T03:04:18.390Z,66.30
2022-08-24T03:06:46.022Z,66.40
2022-08-24T03:09:14.074Z,67.40
2022-08-24T03:11:42.653Z,67.60
2022-08-24T03:14:13.382Z,68.00
2022-08-24T03:16:41.496Z,68.50
2022-08-24T03:19:08.829Z,69.10
2022-08-24T03:21:38.540Z,69.20
2022-08-24T03:24:06.091Z,69.50
2022-08-24T03:26:33.587Z,70.10
2022-08-24T03:29:01.090Z,70.60
2022-08-24T03:31:30.403Z,71.10
2022-08-24T03:33:58.986Z,71.60
2022-08-24T03:36:26.754Z,72.00
2022-08-24T03:38:54.870Z,72.30
2022-08-24T03:41:23.105Z,72.30
2022-08-24T03:43:50.651Z,71.60
2022-08-24T03:46:28.770Z,71.00
2022-08-24T03:48:58.487Z,70.30
2022-08-24T03:51:28.707Z,70.10
2022-08-24T03:53:58.816Z,69.70
2022-08-24T03:56:28.821Z,69.50
2022-08-24T03:58:57.670Z,69.00
2022-08-24T04:01:28.415Z,68.80
2022-08-24T04:03:55.998Z,68.90
2022-08-24T04:06:29.878Z,68.90
2022-08-24T04:08:57.796Z,68.90
2022-08-24T04:11:28.522Z,69.10
2022-08-24T04:13:58.497Z,68.70
2022-08-24T04:16:27.291Z,68.90
2022-08-24T04:19:04.549Z,69.00
2022-08-24T04:21:35.652Z,69.00
2022-08-24T04:24:09.000Z,69.00
2022-08-24T04:26:45.255Z,69.30
2022-08-24T04:29:17.469Z,69.60
2022-08-24T04:31:53.659Z,70.00
2022-08-24T04:34:22.543Z,70.00
2022-08-24T04:36:51.080Z,69.90
2022-08-24T04:39:18.804Z,69.00
2022-08-24T04:41:46.204Z,68.70
2022-08-24T04:44:15.513Z,69.60
2022-08-24T04:46:43.033Z,69.80
2022-08-24T04:49:11.058Z,70.30
2022-08-24T04:51:38.940Z,69.60
2022-08-24T04:54:08.572Z,69.40
2022-08-24T04:56:36.682Z,68.40
2022-08-24T04:59:05.793Z,67.60
2022-08-24T05:01:34.244Z,67.20
2022-08-24T05:04:05.414Z,66.80
2022-08-24T05:06:34.107Z,66.10
2022-08-24T05:09:03.906Z,66.10
2022-08-24T05:11:31.556Z,65.80
2022-08-24T05:13:59.762Z,65.30
2022-08-24T05:16:28.103Z,65.10
2022-08-24T05:18:58.150Z,64.50
2022-08-24T05:21:28.448Z,64.20
2022-08-24T05:23:57.607Z,64.10
2022-08-24T05:26:29.145Z,63.70
2022-08-24T05:28:59.804Z,63.90
2022-08-24T05:31:32.771Z,63.70
2022-08-24T05:34:05.839Z,63.40
2022-08-24T05:36:38.465Z,63.50
2022-08-24T05:39:12.120Z,63.60
2022-08-24T05:41:44.216Z,63.30
2022-08-24T05:44:26.916Z,63.30
2022-08-24T05:47:01.357Z,63.50
2022-08-24T05:49:30.283Z,63.20
2022-08-24T05:51:59.013Z,62.60
2022-08-24T05:54:27.168Z,62.30
2022-08-24T05:57:05.347Z,61.90
2022-08-24T06:00:08.906Z,61.40
2022-08-24T06:02:44.114Z,60.80
2022-08-24T06:05:11.802Z,59.90
2022-08-24T06:07:39.114Z,59.90
2022-08-24T06:10:34.935Z,59.20
2022-08-24T06:12:55.464Z,58.80
2022-08-24T06:15:23.463Z,58.00
2022-08-24T06:17:52.278Z,58.20
2022-08-24T06:20:19.763Z,58.10
2022-08-24T06:22:47.559Z,57.50
2022-08-24T06:25:33.309Z,56.30
2022-08-24T06:28:00.824Z,56.40
2022-08-24T06:30:30.677Z,56.10
2022-08-24T06:33:22.384Z,55.90
2022-08-24T06:35:55.195Z,55.60
2022-08-24T06:38:24.014Z,56.30
2022-08-24T06:40:52.951Z,55.40
2022-08-24T06:43:21.131Z,55.90
2022-08-24T06:45:55.633Z,56.20
2022-08-24T06:48:31.368Z,55.90
2022-08-24T06:50:59.835Z,55.60
2022-08-24T06:53:27.946Z,55.70
2022-08-24T06:56:00.077Z,55.80
2022-08-24T06:58:29.955Z,55.10
2022-08-24T07:01:21.799Z,55.00
2022-08-24T07:03:50.480Z,55.40
2022-08-24T07:06:40.635Z,56.60
2022-08-24T07:09:09.282Z,56.50
2022-08-24T07:11:36.925Z,56.90
2022-08-24T07:14:05.194Z,57.50
2022-08-24T07:16:32.625Z,57.20
2022-08-24T07:19:04.764Z,56.50
2022-08-24T07:21:32.804Z,56.60
2022-08-24T07:24:01.309Z,56.00
2022-08-24T07:26:32.157Z,55.90
2022-08-24T07:29:13.594Z,55.90
2022-08-24T07:31:49.404Z,56.00
2022-08-24T07:34:28.587Z,55.20
2022-08-24T07:36:56.143Z,53.70
2022-08-24T07:39:23.840Z,52.60
2022-08-24T07:42:11.445Z,52.70
2022-08-24T07:44:39.795Z,53.50
2022-08-24T07:47:34.253Z,53.00
2022-08-24T07:49:56.614Z,52.00
2022-08-24T07:52:24.054Z,50.40
2022-08-24T07:54:52.271Z,50.80
2022-08-24T07:57:20.077Z,51.10
2022-08-24T07:59:47.833Z,52.30
2022-08-24T08:02:15.393Z,51.20
2022-08-24T08:04:48.170Z,50.50
2022-08-24T08:07:17.644Z,52.00
2022-08-24T08:09:49.673Z,52.80
2022-08-24T08:12:17.909Z,54.80
2022-08-24T08:14:54.662Z,55.40
2022-08-24T08:17:22.873Z,55.70
2022-08-24T08:19:51.033Z,55.50
2022-08-24T08:22:38.090Z,55.70
2022-08-24T08:25:31.919Z,55.90
2022-08-24T08:28:12.758Z,55.80
2022-08-24T08:30:50.901Z,53.50
2022-08-24T08:33:20.660Z,53.30
2022-08-24T08:35:50.350Z,53.60
2022-08-24T08:38:17.861Z,54.10
2022-08-24T08:41:24.517Z,53.40
2022-08-24T08:44:21.874Z,54.00
2022-08-24T08:47:16.837Z,54.50
2022-08-24T08:49:48.952Z,53.90
2022-08-24T08:52:37.784Z,53.50
2022-08-24T08:55:38.065Z,53.10
2022-08-24T08:58:33.992Z,53.40
2022-08-24T09:01:24.089Z,53.30
2022-08-24T09:04:21.607Z,53.40
2022-08-24T09:07:25.826Z,52.50
2022-08-24T09:10:34.921Z,52.00
2022-08-24T09:13:24.584Z,50.30
2022-08-24T09:16:11.725Z,50.10
2022-08-24T09:19:10.415Z,51.00
2022-08-24T09:21:59.954Z,50.20
2022-08-24T09:24:54.814Z,51.00
2022-08-24T09:28:00.663Z,52.20
2022-08-24T09:30:39.913Z,52.00
2022-08-24T09:33:27.082Z,50.90
2022-08-24T09:36:14.274Z,51.80
2022-08-24T09:39:01.657Z,51.10
2022-08-24T09:41:36.042Z,52.10
2022-08-24T09:44:28.109Z,53.00
2022-08-24T09:47:10.763Z,53.90
2022-08-24T09:50:19.897Z,54.00
2022-08-24T09:53:15.786Z,54.30
2022-08-24T09:56:11.972Z,54.10
2022-08-24T09:58:57.986Z,54.30
2022-08-24T10:01:43.258Z,53.90
2022-08-24T10:04:32.396Z,53.50
2022-08-24T10:07:41.099Z,53.20
2022-08-24T10:10:31.711Z,53.50
2022-08-24T10:13:28.372Z,53.30
2022-08-24T10:15:58.535Z,53.90
2022-08-24T10:18:47.085Z,54.20
2022-08-24T10:21:29.987Z,54.20
2022-08-24T10:24:07.634Z,54.80
2022-08-24T10:27:20.828Z,53.60
2022-08-24T10:30:26.709Z,52.90
2022-08-24T10:33:20.823Z,52.40
2022-08-24T10:36:09.760Z,52.00
2022-08-24T10:39:21.261Z,52.10
2022-08-24T10:42:10.691Z,51.90
2022-08-24T10:45:06.915Z,51.00
2022-08-24T10:47:36.990Z,51.30
2022-08-24T10:50:13.547Z,50.20
2022-08-24T10:53:13.989Z,50.70
2022-08-24T10:55:41.955Z,51.90
2022-08-24T10:58:34.637Z,53.00
2022-08-24T11:01:16.822Z,53.50
2022-08-24T11:03:59.064Z,54.50
2022-08-24T11:06:31.052Z,54.30
2022-08-24T11:09:19.446Z,54.30
2022-08-24T11:11:49.704Z,54.90
2022-08-24T11:14:16.983Z,55.60
2022-08-24T11:16:47.463Z,55.80
2022-08-24T11:19:31.680Z,55.30
2022-08-24T11:22:06.525Z,56.40
2022-08-24T11:24:43.527Z,57.10
2022-08-24T11:27:49.716Z,57.30
2022-08-24T11:30:27.467Z,57.80
2022-08-24T11:32:56.740Z,57.20
2022-08-24T11:35:26.358Z,57.10
2022-08-24T11:38:06.471Z,57.10
2022-08-24T11:40:39.892Z,59.30
2022-08-24T11:43:10.350Z,61.80
2022-08-24T11:45:56.438Z,61.00
2022-08-24T11:48:43.675Z,64.40
2022-08-24T11:51:35.928Z,64.80
2022-08-24T11:55:01.853Z,66.60
2022-08-24T11:57:48.337Z,70.50
2022-08-24T12:00:22.205Z,69.20
2022-08-24T12:03:24.132Z,71.30
2022-08-24T12:06:00.591Z,70.10
2022-08-24T12:08:30.614Z,72.20
2022-08-24T12:11:16.273Z,72.60
2022-08-24T12:13:56.921Z,70.50
2022-08-24T12:17:12.887Z,66.20
2022-08-24T12:19:49.897Z,58.10
2022-08-24T12:22:20.541Z,53.60
2022-08-24T12:24:51.430Z,51.80
2022-08-24T12:27:33.693Z,50.00
2022-08-24T12:30:15.367Z,50.20
2022-08-24T12:32:54.100Z,50.90
2022-08-24T12:35:28.590Z,52.10
2022-08-24T12:38:18.806Z,51.80
2022-08-24T12:41:17.723Z,52.70
2022-08-24T12:44:18.689Z,54.30
2022-08-24T12:46:53.807Z,55.40
2022-08-24T12:49:28.293Z,54.00
2022-08-24T12:52:01.621Z,53.00
2022-08-24T12:54:57.017Z,52.70
2022-08-24T12:58:03.596Z,51.50
2022-08-24T13:00:47.659Z,51.00
2022-08-24T13:03:37.368Z,50.80
2022-08-24T13:06:11.819Z,49.90
2022-08-24T13:08:43.626Z,46.20
2022-08-24T13:11:31.996Z,45.30
2022-08-24T13:13:59.272Z,43.20
2022-08-24T13:16:51.458Z,43.00
2022-08-24T13:19:31.142Z,43.30
2022-08-24T13:22:18.391Z,41.70
2022-08-24T13:25:06.842Z,42.40
2022-08-24T13:27:37.111Z,43.30
2022-08-24T13:30:18.553Z,43.40
2022-08-24T13:32:55.589Z,42.70
2022-08-24T13:35:37.478Z,43.20
2022-08-24T13:38:42.722Z,44.90
2022-08-24T13:41:21.329Z,44.70
2022-08-24T13:43:51.661Z,45.00
2022-08-24T13:46:41.816Z,45.80
2022-08-24T13:49:16.309Z,45.70
2022-08-24T13:51:52.293Z,44.50
2022-08-24T13:54:23.414Z,44.00
2022-08-24T13:57:00.467Z,43.70
2022-08-24T14:00:34.814Z,43.90
2022-08-24T14:03:25.164Z,42.70
2022-08-24T14:05:57.597Z,42.30
2022-08-24T14:08:25.112Z,41.90
2022-08-24T14:11:19.016Z,42.80
2022-08-24T14:14:05.212Z,45.90
2022-08-24T14:17:24.991Z,48.60
2022-08-24T14:20:48.561Z,52.30
2022-08-24T14:23:47.086Z,54.50
2022-08-24T14:26:43.601Z,57.30
2022-08-24T14:29:20.306Z,58.40
2022-08-24T14:31:53.446Z,57.00
2022-08-24T14:34:42.061Z,57.60
2022-08-24T14:37:23.642Z,57.50
2022-08-24T14:40:12.097Z,57.80
2022-08-24T14:42:52.898Z,58.20
2022-08-24T14:45:45.812Z,58.60
2022-08-24T14:48:23.720Z,58.30
2022-08-24T14:50:56.768Z,56.40
2022-08-24T14:53:47.098Z,56.30
2022-08-24T14:56:26.360Z,56.70
2022-08-24T14:59:22.540Z,56.10
2022-08-24T15:01:59.484Z,57.40
2022-08-24T15:04:38.064Z,58.70
2022-08-24T15:07:25.178Z,59.40
2022-08-24T15:09:56.313Z,59.10
2022-08-24T15:12:34.145Z,60.20
2022-08-24T15:15:27.427Z,59.80
2022-08-24T15:18:20.246Z,59.80
2022-08-24T15:20:59.649Z,59.20
2022-08-24T15:23:51.920Z,58.20
2022-08-24T15:26:43.242Z,59.20
2022-08-24T15:29:26.222Z,60.00
2022-08-24T15:31:59.913Z,59.80
2022-08-24T15:34:53.309Z,60.30
2022-08-24T15:37:33.820Z,59.80
2022-08-24T15:40:03.795Z,60.70
2022-08-24T15:42:35.741Z,61.20
2022-08-24T15:45:04.691Z,59.60
2022-08-24T15:47:35.541Z,60.80
2022-08-24T15:50:08.512Z,61.90
2022-08-24T15:52:50.212Z,62.00
2022-08-24T15:55:42.618Z,61.10
2022-08-24T15:58:31.479Z,61.30
2022-08-24T16:01:40.418Z,62.00
2022-08-24T16:04:13.932Z,61.90
2022-08-24T16:06:46.992Z,62.30
2022-08-24T16:09:23.382Z,62.90
2022-08-24T16:12:05.623Z,63.20
2022-08-24T16:14:47.564Z,63.10
2022-08-24T16:17:21.574Z,62.30
2022-08-24T16:19:52.169Z,62.90
2022-08-24T16:22:54.340Z,63.40
2022-08-24T16:25:27.488Z,62.90
2022-08-24T16:28:13.254Z,62.50
2022-08-24T16:30:54.005Z,62.20
2022-08-24T16:33:30.424Z,62.50
2022-08-24T16:35:59.295Z,62.80
2022-08-24T16:38:27.410Z,63.10
2022-08-24T16:40:57.265Z,62.60
2022-08-24T16:43:24.743Z,62.70
2022-08-24T16:45:53.122Z,63.30
2022-08-24T16:48:20.798Z,63.50
2022-08-24T16:50:50.984Z,62.80
2022-08-24T16:53:18.476Z,62.80
2022-08-24T16:55:46.366Z,63.10
2022-08-24T16:58:17.766Z,63.20
2022-08-24T17:00:47.074Z,63.40
2022-08-24T17:03:21.210Z,63.00
2022-08-24T17:05:49.349Z,63.00
2022-08-24T17:08:22.571Z,63.30
2022-08-24T17:10:49.934Z,64.70
2022-08-24T17:13:46.062Z,65.30
2022-08-24T17:16:11.567Z,66.00
2022-08-24T17:18:39.882Z,66.20
2022-08-24T17:21:07.372Z,66.70
2022-08-24T17:23:34.897Z,67.20
2022-08-24T17:26:06.548Z,66.80
2022-08-24T17:28:47.359Z,66.90
2022-08-24T17:31:15.860Z,67.50
2022-08-24T17:33:43.726Z,67.90
2022-08-24T17:36:15.334Z,67.90
2022-08-24T17:38:54.483Z,67.80
2022-08-24T17:41:24.588Z,68.50
2022-08-24T17:43:53.185Z,67.40
2022-08-24T17:46:21.220Z,67.40
2022-08-24T17:48:48.963Z,67.80
2022-08-24T17:51:16.258Z,68.60
2022-08-24T17:53:43.689Z,69.20
2022-08-24T17:56:13.408Z,69.70
2022-08-24T17:59:00.541Z,70.20
2022-08-24T18:01:28.109Z,70.40
2022-08-24T18:03:55.931Z,70.60
2022-08-24T18:06:24.996Z,70.70
2022-08-24T18:08:52.894Z,71.40
2022-08-24T18:11:23.956Z,71.50
2022-08-24T18:13:54.756Z,71.40
2022-08-24T18:16:25.091Z,71.40
2022-08-24T18:18:53.664Z,71.70
2022-08-24T18:21:22.369Z,71.30
2022-08-24T18:23:50.885Z,71.10
2022-08-24T18:26:29.674Z,71.60
2022-08-24T18:29:02.055Z,71.00
2022-08-24T18:31:31.464Z,70.70
2022-08-24T18:33:58.879Z,70.50
2022-08-24T18:36:26.142Z,70.50
2022-08-24T18:38:53.628Z,70.80
2022-08-24T18:41:21.385Z,70.90
2022-08-24T18:43:49.081Z,70.90
2022-08-24T18:46:16.451Z,71.10
2022-08-24T18:48:44.026Z,70.90
2022-08-24T18:51:14.978Z,70.40
2022-08-24T18:53:43.257Z,69.80
2022-08-24T18:56:12.624Z,69.30
2022-08-24T18:58:40.575Z,68.80
2022-08-24T19:01:08.596Z,68.60
2022-08-24T19:03:36.045Z,68.00
2022-08-24T19:06:04.029Z,68.20
2022-08-24T19:08:31.341Z,67.70
2022-08-24T19:10:58.641Z,67.50
2022-08-24T19:13:26.106Z,67.30
2022-08-24T19:15:53.643Z,67.10
2022-08-24T19:18:23.896Z,66.80
2022-08-24T19:20:56.361Z,67.00
2022-08-24T19:23:31.416Z,66.90
2022-08-24T19:26:00.517Z,66.80
2022-08-24T19:28:27.979Z,67.00
2022-08-24T19:31:03.556Z,66.70
2022-08-24T19:33:50.099Z,66.80
2022-08-24T19:36:18.172Z,67.00
2022-08-24T19:38:46.010Z,67.10
2022-08-24T19:41:14.476Z,67.30
2022-08-24T19:44:26.132Z,67.20
2022-08-24T19:46:55.939Z,67.00
2022-08-24T19:49:25.183Z,67.10
2022-08-24T19:51:52.859Z,67.20
2022-08-24T19:54:20.099Z,67.20
2022-08-24T19:56:48.049Z,67.40
2022-08-24T19:59:27.918Z,67.60
2022-08-24T20:01:55.418Z,67.80
2022-08-24T20:04:24.056Z,68.00
2022-08-24T20:06:51.413Z,67.80
2022-08-24T20:09:23.587Z,67.90
2022-08-24T20:11:51.690Z,68.10
2022-08-24T20:14:18.975Z,68.00
2022-08-24T20:16:46.290Z,68.10
2022-08-24T20:19:13.763Z,68.30
2022-08-24T20:21:42.114Z,68.30
2022-08-24T20:24:11.619Z,67.90
2022-08-24T20:26:44.465Z,67.60
2022-08-24T20:29:15.290Z,67.60
2022-08-24T20:31:45.550Z,67.60
2022-08-24T20:34:12.948Z,67.50
2022-08-24T20:36:45.772Z,67.30
2022-08-24T20:39:18.137Z,67.40
2022-08-24T20:41:45.709Z,67.40
2022-08-24T20:44:13.311Z,67.70
2022-08-24T20:46:41.871Z,67.80
2022-08-24T20:49:16.998Z,68.10
2022-08-24T20:51:49.114Z,68.20
2022-08-24T20:54:16.824Z,68.50
2022-08-24T20:56:45.203Z,68.90
2022-08-24T20:59:14.918Z,69.60
2022-08-24T21:01:46.192Z,69.80
2022-08-24T21:04:14.622Z,70.30
2022-08-24T21:06:44.144Z,70.50
2022-08-24T21:09:14.376Z,70.60
2022-08-24T21:11:43.826Z,70.80
2022-08-24T21:14:14.693Z,71.10
2022-08-24T21:16:43.606Z,71.20
2022-08-24T21:19:16.456Z,71.40
2022-08-24T21:21:45.321Z,71.10
2022-08-24T21:24:16.395Z,71.20
2022-08-24T21:26:43.898Z,71.40
2022-08-24T21:29:11.327Z,71.30
2022-08-24T21:31:39.418Z,71.40
2022-08-24T21:34:26.593Z,71.80
2022-08-24T21:36:55.395Z,71.80
2022-08-24T21:39:22.637Z,71.60
2022-08-24T21:41:50.062Z,71.60
2022-08-24T21:44:17.378Z,71.50
2022-08-24T21:46:44.919Z,71.40
2022-08-24T21:49:12.497Z,71.40
2022-08-24T21:51:40.759Z,71.20
2022-08-24T21:54:08.372Z,71.30
2022-08-24T21:56:35.981Z,71.10
2022-08-24T21:59:04.178Z,71.10
2022-08-24T22:01:31.969Z,71.00
2022-08-24T22:04:00.935Z,71.00
2022-08-24T22:06:31.527Z,71.00
2022-08-24T22:08:59.506Z,71.00
2022-08-24T22:11:27.134Z,71.00
2022-08-24T22:13:55.271Z,70.70
2022-08-24T22:16:23.569Z,70.50
2022-08-24T22:18:50.948Z,70.30
2022-08-24T22:21:21.181Z,70.20
2022-08-24T22:23:48.476Z,70.30
2022-08-24T22:26:15.786Z,70.30
2022-08-24T22:28:43.293Z,70.20
2022-08-24T22:31:17.239Z,70.20
2022-08-24T22:33:44.677Z,69.80
2022-08-24T22:36:13.561Z,69.80
2022-08-24T22:38:41.057Z,69.50
2022-08-24T22:41:09.468Z,69.20
2022-08-24T22:43:54.956Z,69.30
2022-08-24T22:46:23.018Z,69.10
2022-08-24T22:48:50.402Z,68.90
2022-08-24T22:51:18.784Z,68.40
2022-08-24T22:53:46.673Z,68.00
2022-08-24T22:56:19.241Z,68.10
2022-08-24T22:58:46.899Z,67.50
2022-08-24T23:01:23.147Z,67.00
2022-08-24T23:03:51.009Z,66.80
2022-08-24T23:06:18.695Z,66.90
2022-08-24T23:08:46.349Z,66.80
2022-08-24T23:11:15.076Z,66.90
2022-08-24T23:13:42.352Z,66.50
2022-08-24T23:16:13.316Z,66.50
2022-08-24T23:18:59.310Z,67.20
2022-08-24T23:21:26.653Z,67.50
2022-08-24T23:23:55.876Z,67.50
2022-08-24T23:26:23.721Z,67.90
2022-08-24T23:28:51.292Z,69.50
2022-08-24T23:31:22.573Z,71.00
2022-08-24T23:33:50.012Z,72.80
2022-08-24T23:36:22.395Z,73.80
2022-08-24T23:38:52.686Z,74.70
2022-08-24T23:41:22.752Z,75.60
2022-08-24T23:43:50.144Z,76.10
2022-08-24T23:46:18.134Z,76.40
2022-08-24T23:48:55.037Z,76.90
2022-08-24T23:51:24.270Z,77.20
2022-08-24T23:53:52.148Z,77.50
2022-08-24T23:56:25.423Z,77.60
2022-08-24T23:58:53.285Z,77.90
